sensor_id;sensor_type;location;lat;lon;timestamp;temperature;humidity
6439;DHT22;3252;52.540;13.290;2022-09-20T00:01:17;10.30;99.90
6439;DHT22;3252;52.540;13.290;2022-09-20T00:03:21;10.30;99.90
6439;DHT22;3252;52.540;13.290;2022-09-20T00:05:23;10.20;99.90
6439;DHT22;3252;52.540;13.290;2022-09-20T00:07:24;10.20;99.90
6439;DHT22;3252;52.540;13.290;2022-09-20T00:09:27;10.20;99.90
6439;DHT22;3252;52.540;13.290;2022-09-20T00:11:31;10.20;99.90
6439;DHT22;3252;52.540;13.290;2022-09-20T00:13:34;10.20;99.90
6439;DHT22;3252;52.540;13.290;2022-09-20T00:15:40;10.20;99.90
6439;DHT22;3252;52.540;13.290;2022-09-20T00:17:43;10.20;99.90
6439;DHT22;3252;52.540;13.290;2022-09-20T00:19:45;10.20;99.90
6439;DHT22;3252;52.540;13.290;2022-09-20T00:21:47;10.10;99.90
6439;DHT22;3252;52.540;13.290;2022-09-20T00:23:51;10.10;99.90
6439;DHT22;3252;52.540;13.290;2022-09-20T00:25:54;10.10;99.90
6439;DHT22;3252;52.540;13.290;2022-09-20T00:27:57;10.10;99.90
6439;DHT22;3252;52.540;13.290;2022-09-20T00:29:59;10.10;99.90
6439;DHT22;3252;52.540;13.290;2022-09-20T00:32:03;10.10;99.90
6439;DHT22;3252;52.540;13.290;2022-09-20T00:34:05;10.10;99.90
6439;DHT22;3252;52.540;13.290;2022-09-20T00:36:25;10.00;99.90
6439;DHT22;3252;52.540;13.290;2022-09-20T00:38:28;10.00;99.90
6439;DHT22;3252;52.540;13.290;2022-09-20T00:40:31;10.00;99.90
6439;DHT22;3252;52.540;13.290;2022-09-20T00:42:34;10.00;99.90
6439;DHT22;3252;52.540;13.290;2022-09-20T00:44:41;9.90;99.90
6439;DHT22;3252;52.540;13.290;2022-09-20T00:46:44;9.90;99.90
6439;DHT22;3252;52.540;13.290;2022-09-20T00:48:48;9.90;99.90
6439;DHT22;3252;52.540;13.290;2022-09-20T00:50:54;9.90;99.90
6439;DHT22;3252;52.540;13.290;2022-09-20T00:53:02;9.80;99.90
6439;DHT22;3252;52.540;13.290;2022-09-20T00:55:07;9.80;99.90
6439;DHT22;3252;52.540;13.290;2022-09-20T00:57:10;9.90;99.90
6439;DHT22;3252;52.540;13.290;2022-09-20T00:59:14;9.80;99.90
6439;DHT22;3252;52.540;13.290;2022-09-20T01:01:17;9.80;99.90
6439;DHT22;3252;52.540;13.290;2022-09-20T01:03:20;9.80;99.90
6439;DHT22;3252;52.540;13.290;2022-09-20T01:05:24;9.80;99.90
6439;DHT22;3252;52.540;13.290;2022-09-20T01:07:27;9.80;99.90
6439;DHT22;3252;52.540;13.290;2022-09-20T01:09:29;9.80;99.90
6439;DHT22;3252;52.540;13.290;2022-09-20T01:11:33;9.70;99.90
6439;DHT22;3252;52.540;13.290;2022-09-20T01:13:36;9.70;99.90
6439;DHT22;3252;52.540;13.290;2022-09-20T01:15:39;9.70;99.90
6439;DHT22;3252;52.540;13.290;2022-09-20T01:17:47;9.70;99.90
6439;DHT22;3252;52.540;13.290;2022-09-20T01:20:04;9.80;99.90
6439;DHT22;3252;52.540;13.290;2022-09-20T01:22:15;9.80;99.90
6439;DHT22;3252;52.540;13.290;2022-09-20T01:24:25;9.80;99.90
6439;DHT22;3252;52.540;13.290;2022-09-20T01:26:42;9.80;99.90
6439;DHT22;3252;52.540;13.290;2022-09-20T01:28:55;9.80;99.90
6439;DHT22;3252;52.540;13.290;2022-09-20T01:31:05;9.70;99.90
6439;DHT22;3252;52.540;13.290;2022-09-20T01:33:13;9.70;99.90
6439;DHT22;3252;52.540;13.290;2022-09-20T01:35:18;9.70;99.90
6439;DHT22;3252;52.540;13.290;2022-09-20T01:37:24;9.70;99.90
6439;DHT22;3252;52.540;13.290;2022-09-20T01:39:35;9.70;99.90
6439;DHT22;3252;52.540;13.290;2022-09-20T01:41:42;9.70;99.90
6439;DHT22;3252;52.540;13.290;2022-09-20T01:43:50;9.60;99.90
6439;DHT22;3252;52.540;13.290;2022-09-20T01:45:53;9.60;99.90
6439;DHT22;3252;52.540;13.290;2022-09-20T01:48:06;9.60;99.90
6439;DHT22;3252;52.540;13.290;2022-09-20T01:50:21;9.60;99.90
6439;DHT22;3252;52.540;13.290;2022-09-20T01:52:52;9.60;99.90
6439;DHT22;3252;52.540;13.290;2022-09-20T02:00:11;9.60;99.90
6439;DHT22;3252;52.540;13.290;2022-09-20T02:02:40;9.70;99.90
6439;DHT22;3252;52.540;13.290;2022-09-20T02:05:16;9.60;99.90
6439;DHT22;3252;52.540;13.290;2022-09-20T02:07:41;9.60;99.90
6439;DHT22;3252;52.540;13.290;2022-09-20T02:10:17;9.70;99.90
6439;DHT22;3252;52.540;13.290;2022-09-20T02:12:39;9.70;99.90
6439;DHT22;3252;52.540;13.290;2022-09-20T02:14:51;9.60;99.90
6439;DHT22;3252;52.540;13.290;2022-09-20T02:17:07;9.70;99.90
6439;DHT22;3252;52.540;13.290;2022-09-20T02:19:26;9.70;99.90
6439;DHT22;3252;52.540;13.290;2022-09-20T02:21:37;9.70;99.90
6439;DHT22;3252;52.540;13.290;2022-09-20T02:23:46;9.70;99.90
6439;DHT22;3252;52.540;13.290;2022-09-20T02:26:08;9.70;99.90
6439;DHT22;3252;52.540;13.290;2022-09-20T02:28:22;9.70;99.90
6439;DHT22;3252;52.540;13.290;2022-09-20T02:30:37;9.80;99.90
6439;DHT22;3252;52.540;13.290;2022-09-20T02:32:58;9.80;99.90
6439;DHT22;3252;52.540;13.290;2022-09-20T02:35:24;9.80;99.90
6439;DHT22;3252;52.540;13.290;2022-09-20T02:40:15;9.80;99.90
6439;DHT22;3252;52.540;13.290;2022-09-20T02:42:20;9.80;99.90
6439;DHT22;3252;52.540;13.290;2022-09-20T02:44:38;9.80;99.90
6439;DHT22;3252;52.540;13.290;2022-09-20T02:46:46;9.80;99.90
6439;DHT22;3252;52.540;13.290;2022-09-20T02:48:59;9.80;99.90
6439;DHT22;3252;52.540;13.290;2022-09-20T02:51:08;9.80;99.90
6439;DHT22;3252;52.540;13.290;2022-09-20T02:53:25;9.80;99.90
6439;DHT22;3252;52.540;13.290;2022-09-20T02:55:39;9.80;99.90
6439;DHT22;3252;52.540;13.290;2022-09-20T02:57:49;9.80;99.90
6439;DHT22;3252;52.540;13.290;2022-09-20T02:59:57;9.80;99.90
6439;DHT22;3252;52.540;13.290;2022-09-20T03:02:08;9.90;99.90
6439;DHT22;3252;52.540;13.290;2022-09-20T03:04:29;9.90;99.90
6439;DHT22;3252;52.540;13.290;2022-09-20T03:06:41;9.90;99.90
6439;DHT22;3252;52.540;13.290;2022-09-20T03:08:51;9.90;99.90
6439;DHT22;3252;52.540;13.290;2022-09-20T03:11:02;9.90;99.90
6439;DHT22;3252;52.540;13.290;2022-09-20T03:13:16;9.90;99.90
6439;DHT22;3252;52.540;13.290;2022-09-20T03:15:28;9.90;99.90
6439;DHT22;3252;52.540;13.290;2022-09-20T03:17:40;9.90;99.90
6439;DHT22;3252;52.540;13.290;2022-09-20T03:19:58;10.00;99.90
6439;DHT22;3252;52.540;13.290;2022-09-20T03:22:08;10.00;99.90
6439;DHT22;3252;52.540;13.290;2022-09-20T03:24:22;9.90;99.90
6439;DHT22;3252;52.540;13.290;2022-09-20T03:26:33;10.00;99.90
6439;DHT22;3252;52.540;13.290;2022-09-20T03:28:45;10.00;99.90
6439;DHT22;3252;52.540;13.290;2022-09-20T03:30:58;10.00;99.90
6439;DHT22;3252;52.540;13.290;2022-09-20T03:33:08;10.00;99.90
6439;DHT22;3252;52.540;13.290;2022-09-20T03:35:27;10.00;99.90
6439;DHT22;3252;52.540;13.290;2022-09-20T03:37:48;10.00;99.90
6439;DHT22;3252;52.540;13.290;2022-09-20T03:40:21;10.00;99.90
6439;DHT22;3252;52.540;13.290;2022-09-20T03:42:28;10.00;99.90
6439;DHT22;3252;52.540;13.290;2022-09-20T03:45:04;10.00;99.90
6439;DHT22;3252;52.540;13.290;2022-09-20T03:47:26;10.00;99.90
6439;DHT22;3252;52.540;13.290;2022-09-20T03:49:52;10.00;99.90
6439;DHT22;3252;52.540;13.290;2022-09-20T03:52:04;10.00;99.90
6439;DHT22;3252;52.540;13.290;2022-09-20T03:54:42;10.00;99.90
6439;DHT22;3252;52.540;13.290;2022-09-20T03:57:12;10.10;99.90
6439;DHT22;3252;52.540;13.290;2022-09-20T03:59:30;10.10;99.90
6439;DHT22;3252;52.540;13.290;2022-09-20T04:01:53;10.10;99.90
6439;DHT22;3252;52.540;13.290;2022-09-20T04:04:06;10.10;99.90
6439;DHT22;3252;52.540;13.290;2022-09-20T04:06:29;10.10;99.90
6439;DHT22;3252;52.540;13.290;2022-09-20T04:09:07;10.10;99.90
6439;DHT22;3252;52.540;13.290;2022-09-20T04:11:15;10.10;99.90
6439;DHT22;3252;52.540;13.290;2022-09-20T04:13:29;10.10;99.90
6439;DHT22;3252;52.540;13.290;2022-09-20T04:15:42;10.10;99.90
6439;DHT22;3252;52.540;13.290;2022-09-20T04:17:52;10.20;99.90
6439;DHT22;3252;52.540;13.290;2022-09-20T04:20:02;10.20;99.90
6439;DHT22;3252;52.540;13.290;2022-09-20T04:22:07;10.20;99.90
6439;DHT22;3252;52.540;13.290;2022-09-20T04:24:17;10.20;99.90
6439;DHT22;3252;52.540;13.290;2022-09-20T04:26:26;10.20;99.90
6439;DHT22;3252;52.540;13.290;2022-09-20T04:28:33;10.20;99.90
6439;DHT22;3252;52.540;13.290;2022-09-20T04:30:39;10.20;99.90
6439;DHT22;3252;52.540;13.290;2022-09-20T04:32:48;10.10;99.90
6439;DHT22;3252;52.540;13.290;2022-09-20T04:34:57;10.20;99.90
6439;DHT22;3252;52.540;13.290;2022-09-20T04:37:26;10.10;99.90
6439;DHT22;3252;52.540;13.290;2022-09-20T04:39:39;10.10;99.90
6439;DHT22;3252;52.540;13.290;2022-09-20T04:42:17;10.10;99.90
6439;DHT22;3252;52.540;13.290;2022-09-20T04:47:24;10.10;99.90
6439;DHT22;3252;52.540;13.290;2022-09-20T04:50:22;10.10;99.90
6439;DHT22;3252;52.540;13.290;2022-09-20T04:52:59;10.10;99.90
6439;DHT22;3252;52.540;13.290;2022-09-20T04:55:40;10.10;99.90
6439;DHT22;3252;52.540;13.290;2022-09-20T04:58:06;10.10;99.90
6439;DHT22;3252;52.540;13.290;2022-09-20T05:00:15;10.10;99.90
6439;DHT22;3252;52.540;13.290;2022-09-20T05:02:51;10.10;99.90
6439;DHT22;3252;52.540;13.290;2022-09-20T05:05:31;10.10;99.90
6439;DHT22;3252;52.540;13.290;2022-09-20T05:13:13;10.10;99.90
6439;DHT22;3252;52.540;13.290;2022-09-20T05:15:29;10.10;99.90
6439;DHT22;3252;52.540;13.290;2022-09-20T05:17:44;10.10;99.90
6439;DHT22;3252;52.540;13.290;2022-09-20T05:20:21;10.10;99.90
6439;DHT22;3252;52.540;13.290;2022-09-20T05:28:05;10.20;99.90
6439;DHT22;3252;52.540;13.290;2022-09-20T05:30:22;10.10;99.90
6439;DHT22;3252;52.540;13.290;2022-09-20T05:32:32;10.20;99.90
6439;DHT22;3252;52.540;13.290;2022-09-20T05:34:43;10.20;99.90
6439;DHT22;3252;52.540;13.290;2022-09-20T05:36:52;10.20;99.90
6439;DHT22;3252;52.540;13.290;2022-09-20T05:39:03;10.20;99.90
6439;DHT22;3252;52.540;13.290;2022-09-20T05:41:12;10.30;99.90
6439;DHT22;3252;52.540;13.290;2022-09-20T05:43:23;10.30;99.90
6439;DHT22;3252;52.540;13.290;2022-09-20T05:45:46;10.30;99.90
6439;DHT22;3252;52.540;13.290;2022-09-20T05:47:54;10.30;99.90
6439;DHT22;3252;52.540;13.290;2022-09-20T05:50:08;10.30;99.90
6439;DHT22;3252;52.540;13.290;2022-09-20T05:52:28;10.40;99.90
6439;DHT22;3252;52.540;13.290;2022-09-20T05:57:29;10.40;99.90
6439;DHT22;3252;52.540;13.290;2022-09-20T05:59:45;10.50;99.90
6439;DHT22;3252;52.540;13.290;2022-09-20T06:02:05;10.50;99.90
6439;DHT22;3252;52.540;13.290;2022-09-20T06:04:14;10.50;99.90
6439;DHT22;3252;52.540;13.290;2022-09-20T06:06:26;10.50;99.90
6439;DHT22;3252;52.540;13.290;2022-09-20T06:08:39;10.50;99.90
6439;DHT22;3252;52.540;13.290;2022-09-20T06:13:18;10.50;99.90
6439;DHT22;3252;52.540;13.290;2022-09-20T06:15:28;10.60;99.90
6439;DHT22;3252;52.540;13.290;2022-09-20T06:17:38;10.60;99.90
6439;DHT22;3252;52.540;13.290;2022-09-20T06:19:44;10.60;99.90
6439;DHT22;3252;52.540;13.290;2022-09-20T06:21:50;10.60;99.90
6439;DHT22;3252;52.540;13.290;2022-09-20T06:23:56;10.60;99.90
6439;DHT22;3252;52.540;13.290;2022-09-20T06:26:01;10.60;99.90
6439;DHT22;3252;52.540;13.290;2022-09-20T06:28:10;10.60;99.90
6439;DHT22;3252;52.540;13.290;2022-09-20T06:30:16;10.60;99.90
6439;DHT22;3252;52.540;13.290;2022-09-20T06:32:19;10.60;99.90
6439;DHT22;3252;52.540;13.290;2022-09-20T06:34:22;10.60;99.90
6439;DHT22;3252;52.540;13.290;2022-09-20T06:36:27;10.70;99.90
6439;DHT22;3252;52.540;13.290;2022-09-20T06:38:56;10.70;99.90
6439;DHT22;3252;52.540;13.290;2022-09-20T06:41:19;10.70;99.90
6439;DHT22;3252;52.540;13.290;2022-09-20T06:43:28;10.70;99.90
6439;DHT22;3252;52.540;13.290;2022-09-20T06:45:31;10.80;99.90
6439;DHT22;3252;52.540;13.290;2022-09-20T06:47:33;10.80;99.90
6439;DHT22;3252;52.540;13.290;2022-09-20T06:49:36;10.80;99.90
6439;DHT22;3252;52.540;13.290;2022-09-20T06:51:39;10.80;99.90
6439;DHT22;3252;52.540;13.290;2022-09-20T06:53:43;10.80;99.90
6439;DHT22;3252;52.540;13.290;2022-09-20T06:55:45;10.80;99.90
6439;DHT22;3252;52.540;13.290;2022-09-20T06:57:47;10.80;99.90
6439;DHT22;3252;52.540;13.290;2022-09-20T06:59:51;10.80;99.90
6439;DHT22;3252;52.540;13.290;2022-09-20T07:01:53;10.80;99.90
6439;DHT22;3252;52.540;13.290;2022-09-20T07:03:55;10.80;99.90
6439;DHT22;3252;52.540;13.290;2022-09-20T07:05:58;10.80;99.90
6439;DHT22;3252;52.540;13.290;2022-09-20T07:08:02;10.80;99.90
6439;DHT22;3252;52.540;13.290;2022-09-20T07:10:04;10.80;99.90
6439;DHT22;3252;52.540;13.290;2022-09-20T07:12:06;10.70;99.90
6439;DHT22;3252;52.540;13.290;2022-09-20T07:14:11;10.70;99.90
6439;DHT22;3252;52.540;13.290;2022-09-20T07:16:15;10.80;99.90
6439;DHT22;3252;52.540;13.290;2022-09-20T07:18:17;10.90;99.90
6439;DHT22;3252;52.540;13.290;2022-09-20T07:20:19;10.90;99.90
6439;DHT22;3252;52.540;13.290;2022-09-20T07:22:22;11.00;99.90
6439;DHT22;3252;52.540;13.290;2022-09-20T07:24:24;11.10;99.90
6439;DHT22;3252;52.540;13.290;2022-09-20T07:26:28;11.10;99.90
6439;DHT22;3252;52.540;13.290;2022-09-20T07:28:32;11.10;99.90
6439;DHT22;3252;52.540;13.290;2022-09-20T07:30:34;11.10;99.90
6439;DHT22;3252;52.540;13.290;2022-09-20T07:32:36;11.10;99.90
6439;DHT22;3252;52.540;13.290;2022-09-20T07:34:39;11.20;99.90
6439;DHT22;3252;52.540;13.290;2022-09-20T07:36:41;11.20;99.90
6439;DHT22;3252;52.540;13.290;2022-09-20T07:38:48;11.30;99.90
6439;DHT22;3252;52.540;13.290;2022-09-20T07:40:54;11.40;99.90
6439;DHT22;3252;52.540;13.290;2022-09-20T07:42:56;11.50;99.90
6439;DHT22;3252;52.540;13.290;2022-09-20T07:44:58;11.60;99.90
6439;DHT22;3252;52.540;13.290;2022-09-20T07:47:02;11.70;99.90
6439;DHT22;3252;52.540;13.290;2022-09-20T07:49:06;11.70;99.90
6439;DHT22;3252;52.540;13.290;2022-09-20T07:51:10;11.70;99.90
6439;DHT22;3252;52.540;13.290;2022-09-20T07:53:12;11.80;99.90
6439;DHT22;3252;52.540;13.290;2022-09-20T07:55:15;11.80;99.90
6439;DHT22;3252;52.540;13.290;2022-09-20T07:57:17;12.00;99.90
6439;DHT22;3252;52.540;13.290;2022-09-20T07:59:19;12.00;99.90
6439;DHT22;3252;52.540;13.290;2022-09-20T08:01:21;12.10;99.90
6439;DHT22;3252;52.540;13.290;2022-09-20T08:03:23;12.10;99.90
6439;DHT22;3252;52.540;13.290;2022-09-20T08:05:26;12.20;99.90
6439;DHT22;3252;52.540;13.290;2022-09-20T08:07:28;12.30;99.90
6439;DHT22;3252;52.540;13.290;2022-09-20T08:09:30;12.60;99.90
6439;DHT22;3252;52.540;13.290;2022-09-20T08:11:33;12.80;99.90
6439;DHT22;3252;52.540;13.290;2022-09-20T08:13:36;12.70;99.90
6439;DHT22;3252;52.540;13.290;2022-09-20T08:15:39;12.60;99.90
6439;DHT22;3252;52.540;13.290;2022-09-20T08:17:41;12.60;99.90
6439;DHT22;3252;52.540;13.290;2022-09-20T08:19:47;12.60;99.90
6439;DHT22;3252;52.540;13.290;2022-09-20T08:21:50;12.60;99.90
6439;DHT22;3252;52.540;13.290;2022-09-20T08:23:53;12.60;99.90
6439;DHT22;3252;52.540;13.290;2022-09-20T08:25:55;12.70;99.90
6439;DHT22;3252;52.540;13.290;2022-09-20T08:27:59;12.90;99.90
6439;DHT22;3252;52.540;13.290;2022-09-20T08:30:01;12.90;99.90
6439;DHT22;3252;52.540;13.290;2022-09-20T08:32:04;13.00;99.90
6439;DHT22;3252;52.540;13.290;2022-09-20T08:34:07;13.00;99.90
6439;DHT22;3252;52.540;13.290;2022-09-20T08:36:12;13.00;99.90
6439;DHT22;3252;52.540;13.290;2022-09-20T08:38:14;13.10;99.90
6439;DHT22;3252;52.540;13.290;2022-09-20T08:40:16;13.20;99.90
6439;DHT22;3252;52.540;13.290;2022-09-20T08:42:23;13.30;99.90
6439;DHT22;3252;52.540;13.290;2022-09-20T08:44:31;13.40;99.90
6439;DHT22;3252;52.540;13.290;2022-09-20T08:46:37;14.00;99.90
6439;DHT22;3252;52.540;13.290;2022-09-20T08:48:40;14.20;99.90
6439;DHT22;3252;52.540;13.290;2022-09-20T08:50:42;14.10;99.90
6439;DHT22;3252;52.540;13.290;2022-09-20T08:52:46;13.90;99.90
6439;DHT22;3252;52.540;13.290;2022-09-20T08:54:49;13.80;99.90
6439;DHT22;3252;52.540;13.290;2022-09-20T08:56:51;13.80;99.90
6439;DHT22;3252;52.540;13.290;2022-09-20T08:58:53;13.80;99.90
6439;DHT22;3252;52.540;13.290;2022-09-20T09:01:02;13.90;99.90
6439;DHT22;3252;52.540;13.290;2022-09-20T09:03:09;14.00;99.90
6439;DHT22;3252;52.540;13.290;2022-09-20T09:05:31;13.90;99.90
6439;DHT22;3252;52.540;13.290;2022-09-20T09:07:33;13.90;99.90
6439;DHT22;3252;52.540;13.290;2022-09-20T09:09:37;13.90;99.90
6439;DHT22;3252;52.540;13.290;2022-09-20T09:11:41;13.80;99.90
6439;DHT22;3252;52.540;13.290;2022-09-20T09:13:49;14.00;99.90
6439;DHT22;3252;52.540;13.290;2022-09-20T09:15:56;14.20;99.90
6439;DHT22;3252;52.540;13.290;2022-09-20T09:17:59;14.20;99.90
6439;DHT22;3252;52.540;13.290;2022-09-20T09:20:15;14.30;99.90
6439;DHT22;3252;52.540;13.290;2022-09-20T09:22:21;14.30;99.90
6439;DHT22;3252;52.540;13.290;2022-09-20T09:24:24;14.50;99.90
6439;DHT22;3252;52.540;13.290;2022-09-20T09:26:27;14.50;99.90
6439;DHT22;3252;52.540;13.290;2022-09-20T09:28:30;14.60;99.90
6439;DHT22;3252;52.540;13.290;2022-09-20T09:30:37;14.60;99.90
6439;DHT22;3252;52.540;13.290;2022-09-20T09:32:40;14.50;99.90
6439;DHT22;3252;52.540;13.290;2022-09-20T09:34:43;14.40;99.90
6439;DHT22;3252;52.540;13.290;2022-09-20T09:36:45;14.40;99.90
6439;DHT22;3252;52.540;13.290;2022-09-20T09:38:47;14.40;99.90
6439;DHT22;3252;52.540;13.290;2022-09-20T09:40:51;14.50;99.90
6439;DHT22;3252;52.540;13.290;2022-09-20T09:42:55;14.50;99.90
6439;DHT22;3252;52.540;13.290;2022-09-20T09:45:09;14.60;99.90
6439;DHT22;3252;52.540;13.290;2022-09-20T09:47:22;14.60;99.90
6439;DHT22;3252;52.540;13.290;2022-09-20T09:49:29;14.70;99.90
6439;DHT22;3252;52.540;13.290;2022-09-20T09:51:37;14.60;99.90
6439;DHT22;3252;52.540;13.290;2022-09-20T09:53:42;14.70;99.90
6439;DHT22;3252;52.540;13.290;2022-09-20T09:55:56;14.80;99.90
6439;DHT22;3252;52.540;13.290;2022-09-20T09:58:07;14.90;99.90
6439;DHT22;3252;52.540;13.290;2022-09-20T10:00:17;14.80;99.90
6439;DHT22;3252;52.540;13.290;2022-09-20T10:02:47;15.10;99.90
6439;DHT22;3252;52.540;13.290;2022-09-20T10:04:58;15.20;99.90
6439;DHT22;3252;52.540;13.290;2022-09-20T10:07:08;15.30;99.90
6439;DHT22;3252;52.540;13.290;2022-09-20T10:09:24;15.40;99.90
6439;DHT22;3252;52.540;13.290;2022-09-20T10:11:38;15.40;99.90
6439;DHT22;3252;52.540;13.290;2022-09-20T10:13:52;15.30;99.90
6439;DHT22;3252;52.540;13.290;2022-09-20T10:16:01;15.30;99.90
6439;DHT22;3252;52.540;13.290;2022-09-20T10:18:18;15.30;99.90
6439;DHT22;3252;52.540;13.290;2022-09-20T10:20:34;15.70;99.90
6439;DHT22;3252;52.540;13.290;2022-09-20T10:22:46;16.60;99.90
6439;DHT22;3252;52.540;13.290;2022-09-20T10:24:58;17.70;99.90
6439;DHT22;3252;52.540;13.290;2022-09-20T10:27:13;17.70;99.90
6439;DHT22;3252;52.540;13.290;2022-09-20T10:29:29;17.80;99.90
6439;DHT22;3252;52.540;13.290;2022-09-20T10:31:45;17.20;99.90
6439;DHT22;3252;52.540;13.290;2022-09-20T10:33:59;16.70;99.90
6439;DHT22;3252;52.540;13.290;2022-09-20T10:36:14;16.50;99.90
6439;DHT22;3252;52.540;13.290;2022-09-20T10:38:22;16.20;99.90
6439;DHT22;3252;52.540;13.290;2022-09-20T10:40:29;16.30;99.90
6439;DHT22;3252;52.540;13.290;2022-09-20T10:42:49;16.20;99.90
6439;DHT22;3252;52.540;13.290;2022-09-20T10:45:14;16.30;99.90
6439;DHT22;3252;52.540;13.290;2022-09-20T10:47:22;16.20;99.90
6439;DHT22;3252;52.540;13.290;2022-09-20T10:49:34;16.20;99.90
6439;DHT22;3252;52.540;13.290;2022-09-20T10:51:43;16.40;99.90
6439;DHT22;3252;52.540;13.290;2022-09-20T10:53:54;16.50;99.90
6439;DHT22;3252;52.540;13.290;2022-09-20T10:56:10;16.70;99.90
6439;DHT22;3252;52.540;13.290;2022-09-20T10:58:41;17.20;99.90
6439;DHT22;3252;52.540;13.290;2022-09-20T11:00:51;17.10;99.90
6439;DHT22;3252;52.540;13.290;2022-09-20T11:03:12;16.60;99.90
6439;DHT22;3252;52.540;13.290;2022-09-20T11:05:27;16.40;99.90
6439;DHT22;3252;52.540;13.290;2022-09-20T11:07:38;16.20;99.90
6439;DHT22;3252;52.540;13.290;2022-09-20T11:09:48;16.20;99.90
6439;DHT22;3252;52.540;13.290;2022-09-20T11:11:53;16.10;99.90
6439;DHT22;3252;52.540;13.290;2022-09-20T11:14:02;15.90;99.90
6439;DHT22;3252;52.540;13.290;2022-09-20T11:16:11;15.80;99.90
6439;DHT22;3252;52.540;13.290;2022-09-20T11:18:18;15.60;99.90
6439;DHT22;3252;52.540;13.290;2022-09-20T11:20:26;15.40;99.90
6439;DHT22;3252;52.540;13.290;2022-09-20T11:22:35;15.20;99.90
6439;DHT22;3252;52.540;13.290;2022-09-20T11:24:42;15.00;99.90
6439;DHT22;3252;52.540;13.290;2022-09-20T11:26:49;14.20;99.90
6439;DHT22;3252;52.540;13.290;2022-09-20T11:28:54;14.20;99.90
6439;DHT22;3252;52.540;13.290;2022-09-20T11:31:02;14.10;99.90
6439;DHT22;3252;52.540;13.290;2022-09-20T11:33:12;14.00;99.90
6439;DHT22;3252;52.540;13.290;2022-09-20T11:35:26;13.90;99.90
6439;DHT22;3252;52.540;13.290;2022-09-20T11:37:34;13.80;99.90
6439;DHT22;3252;52.540;13.290;2022-09-20T11:39:40;13.70;99.90
6439;DHT22;3252;52.540;13.290;2022-09-20T11:41:43;13.60;99.90
6439;DHT22;3252;52.540;13.290;2022-09-20T11:43:48;13.40;99.90
6439;DHT22;3252;52.540;13.290;2022-09-20T11:45:55;13.30;99.90
6439;DHT22;3252;52.540;13.290;2022-09-20T11:48:02;13.30;99.90
6439;DHT22;3252;52.540;13.290;2022-09-20T11:50:51;13.20;99.90
6439;DHT22;3252;52.540;13.290;2022-09-20T11:53:07;13.10;99.90
6439;DHT22;3252;52.540;13.290;2022-09-20T11:55:33;13.10;99.90
6439;DHT22;3252;52.540;13.290;2022-09-20T11:57:41;13.00;99.90
6439;DHT22;3252;52.540;13.290;2022-09-20T11:59:51;13.00;99.90
6439;DHT22;3252;52.540;13.290;2022-09-20T12:01:56;13.00;99.90
6439;DHT22;3252;52.540;13.290;2022-09-20T12:04:05;13.10;99.90
6439;DHT22;3252;52.540;13.290;2022-09-20T12:06:25;13.00;99.90
6439;DHT22;3252;52.540;13.290;2022-09-20T12:08:31;13.20;99.90
6439;DHT22;3252;52.540;13.290;2022-09-20T12:10:36;13.30;99.90
6439;DHT22;3252;52.540;13.290;2022-09-20T12:12:40;13.30;99.90
6439;DHT22;3252;52.540;13.290;2022-09-20T12:14:54;13.30;99.90
6439;DHT22;3252;52.540;13.290;2022-09-20T12:16:56;13.40;99.90
6439;DHT22;3252;52.540;13.290;2022-09-20T12:19:02;13.40;99.90
6439;DHT22;3252;52.540;13.290;2022-09-20T12:21:15;13.40;99.90
6439;DHT22;3252;52.540;13.290;2022-09-20T12:23:43;13.40;99.90
6439;DHT22;3252;52.540;13.290;2022-09-20T12:25:59;13.40;99.90
6439;DHT22;3252;52.540;13.290;2022-09-20T12:28:02;13.40;99.90
6439;DHT22;3252;52.540;13.290;2022-09-20T12:30:15;13.50;99.90
6439;DHT22;3252;52.540;13.290;2022-09-20T12:32:43;13.50;99.90
6439;DHT22;3252;52.540;13.290;2022-09-20T12:34:46;13.50;99.90
6439;DHT22;3252;52.540;13.290;2022-09-20T12:37:15;13.60;99.90
6439;DHT22;3252;52.540;13.290;2022-09-20T12:39:22;13.60;99.90
6439;DHT22;3252;52.540;13.290;2022-09-20T12:41:26;13.80;99.90
6439;DHT22;3252;52.540;13.290;2022-09-20T12:43:29;13.90;99.90
6439;DHT22;3252;52.540;13.290;2022-09-20T12:45:34;14.00;99.90
6439;DHT22;3252;52.540;13.290;2022-09-20T12:47:37;13.90;99.90
6439;DHT22;3252;52.540;13.290;2022-09-20T12:49:41;13.90;99.90
6439;DHT22;3252;52.540;13.290;2022-09-20T12:52:24;13.80;99.90
6439;DHT22;3252;52.540;13.290;2022-09-20T12:54:49;13.60;99.90
6439;DHT22;3252;52.540;13.290;2022-09-20T12:56:52;13.50;99.90
6439;DHT22;3252;52.540;13.290;2022-09-20T12:58:55;13.40;99.90
6439;DHT22;3252;52.540;13.290;2022-09-20T13:01:27;13.00;99.90
6439;DHT22;3252;52.540;13.290;2022-09-20T13:03:31;12.90;99.90
6439;DHT22;3252;52.540;13.290;2022-09-20T13:05:36;12.90;99.90
6439;DHT22;3252;52.540;13.290;2022-09-20T13:07:52;12.80;99.90
6439;DHT22;3252;52.540;13.290;2022-09-20T13:10:02;12.80;99.90
6439;DHT22;3252;52.540;13.290;2022-09-20T13:12:06;12.70;99.90
6439;DHT22;3252;52.540;13.290;2022-09-20T13:14:12;12.70;99.90
6439;DHT22;3252;52.540;13.290;2022-09-20T13:16:19;12.50;99.90
6439;DHT22;3252;52.540;13.290;2022-09-20T13:18:24;12.50;99.90
6439;DHT22;3252;52.540;13.290;2022-09-20T13:20:31;12.50;99.90
6439;DHT22;3252;52.540;13.290;2022-09-20T13:22:36;12.50;99.90
6439;DHT22;3252;52.540;13.290;2022-09-20T13:24:45;12.40;99.90
6439;DHT22;3252;52.540;13.290;2022-09-20T13:26:48;12.50;99.90
6439;DHT22;3252;52.540;13.290;2022-09-20T13:28:53;12.50;99.90
6439;DHT22;3252;52.540;13.290;2022-09-20T13:31:21;12.60;99.90
6439;DHT22;3252;52.540;13.290;2022-09-20T13:33:24;12.70;99.90
6439;DHT22;3252;52.540;13.290;2022-09-20T13:35:27;12.80;99.90
6439;DHT22;3252;52.540;13.290;2022-09-20T13:37:32;13.00;99.90
6439;DHT22;3252;52.540;13.290;2022-09-20T13:39:35;13.10;99.90
6439;DHT22;3252;52.540;13.290;2022-09-20T13:41:37;13.00;99.90
6439;DHT22;3252;52.540;13.290;2022-09-20T13:43:41;13.00;99.90
6439;DHT22;3252;52.540;13.290;2022-09-20T13:45:43;13.10;99.90
6439;DHT22;3252;52.540;13.290;2022-09-20T13:47:48;13.20;99.90
6439;DHT22;3252;52.540;13.290;2022-09-20T13:49:58;13.40;99.90
6439;DHT22;3252;52.540;13.290;2022-09-20T13:52:19;13.90;99.90
6439;DHT22;3252;52.540;13.290;2022-09-20T13:54:26;14.30;99.90
6439;DHT22;3252;52.540;13.290;2022-09-20T13:56:29;14.70;99.90
6439;DHT22;3252;52.540;13.290;2022-09-20T13:58:33;14.30;99.90
6439;DHT22;3252;52.540;13.290;2022-09-20T14:00:44;14.20;99.90
6439;DHT22;3252;52.540;13.290;2022-09-20T14:02:47;14.00;99.90
6439;DHT22;3252;52.540;13.290;2022-09-20T14:04:52;14.00;99.90
6439;DHT22;3252;52.540;13.290;2022-09-20T14:06:57;14.10;99.90
6439;DHT22;3252;52.540;13.290;2022-09-20T14:09:02;14.40;99.90
6439;DHT22;3252;52.540;13.290;2022-09-20T14:11:14;14.90;99.90
6439;DHT22;3252;52.540;13.290;2022-09-20T14:13:17;14.80;99.90
6439;DHT22;3252;52.540;13.290;2022-09-20T14:15:21;14.70;99.90
6439;DHT22;3252;52.540;13.290;2022-09-20T14:17:23;14.50;99.90
6439;DHT22;3252;52.540;13.290;2022-09-20T14:19:29;14.40;99.90
6439;DHT22;3252;52.540;13.290;2022-09-20T14:21:33;14.40;99.90
6439;DHT22;3252;52.540;13.290;2022-09-20T14:23:50;14.30;99.90
6439;DHT22;3252;52.540;13.290;2022-09-20T14:26:06;14.30;99.90